sensor_id;sensor_type;location;lat;lon;timestamp;temperature;humidity
52709;DHT22;38606;52.986;6.980;2023-01-31T00:01:19;5.20;99.90
52709;DHT22;38606;52.986;6.980;2023-01-31T00:03:46;5.20;99.90
52709;DHT22;38606;52.986;6.980;2023-01-31T00:06:40;3.90;99.90
52709;DHT22;38606;52.986;6.980;2023-01-31T00:09:08;5.00;99.90
52709;DHT22;38606;52.986;6.980;2023-01-31T00:11:34;3.80;99.90
52709;DHT22;38606;52.986;6.980;2023-01-31T00:14:02;4.00;99.90
52709;DHT22;38606;52.986;6.980;2023-01-31T00:16:29;4.70;99.90
52709;DHT22;38606;52.986;6.980;2023-01-31T00:18:54;4.10;99.90
52709;DHT22;38606;52.986;6.980;2023-01-31T00:21:25;4.90;99.90
52709;DHT22;38606;52.986;6.980;2023-01-31T00:23:52;4.60;99.90
52709;DHT22;38606;52.986;6.980;2023-01-31T00:26:20;3.60;99.90
52709;DHT22;38606;52.986;6.980;2023-01-31T00:28:48;3.60;99.90
52709;DHT22;38606;52.986;6.980;2023-01-31T00:31:15;4.90;99.90
52709;DHT22;38606;52.986;6.980;2023-01-31T00:33:43;3.50;99.90
52709;DHT22;38606;52.986;6.980;2023-01-31T00:36:15;4.50;99.90
52709;DHT22;38606;52.986;6.980;2023-01-31T00:38:41;3.60;99.90
52709;DHT22;38606;52.986;6.980;2023-01-31T00:41:08;4.50;99.90
52709;DHT22;38606;52.986;6.980;2023-01-31T00:43:34;3.60;99.90
52709;DHT22;38606;52.986;6.980;2023-01-31T00:46:00;4.20;99.90
52709;DHT22;38606;52.986;6.980;2023-01-31T00:48:26;3.50;99.90
52709;DHT22;38606;52.986;6.980;2023-01-31T00:50:52;3.40;99.90
52709;DHT22;38606;52.986;6.980;2023-01-31T00:53:17;3.90;99.90
52709;DHT22;38606;52.986;6.980;2023-01-31T00:55:49;4.10;99.90
52709;DHT22;38606;52.986;6.980;2023-01-31T00:58:15;3.40;99.90
52709;DHT22;38606;52.986;6.980;2023-01-31T01:00:40;3.60;99.90
52709;DHT22;38606;52.986;6.980;2023-01-31T01:03:06;3.50;99.90
52709;DHT22;38606;52.986;6.980;2023-01-31T01:05:32;4.50;99.90
52709;DHT22;38606;52.986;6.980;2023-01-31T01:07:57;3.60;99.90
52709;DHT22;38606;52.986;6.980;2023-01-31T01:10:23;3.60;99.90
52709;DHT22;38606;52.986;6.980;2023-01-31T01:12:49;3.90;99.90
52709;DHT22;38606;52.986;6.980;2023-01-31T01:15:15;3.30;99.90
52709;DHT22;38606;52.986;6.980;2023-01-31T01:17:40;4.80;99.90
52709;DHT22;38606;52.986;6.980;2023-01-31T01:20:07;3.40;99.90
52709;DHT22;38606;52.986;6.980;2023-01-31T01:22:34;3.30;99.90
52709;DHT22;38606;52.986;6.980;2023-01-31T01:25:01;3.30;99.90
52709;DHT22;38606;52.986;6.980;2023-01-31T01:27:27;3.20;99.90
52709;DHT22;38606;52.986;6.980;2023-01-31T01:29:53;3.20;99.90
52709;DHT22;38606;52.986;6.980;2023-01-31T01:32:19;3.40;99.90
52709;DHT22;38606;52.986;6.980;2023-01-31T01:34:44;4.40;99.90
52709;DHT22;38606;52.986;6.980;2023-01-31T01:37:10;3.20;99.90
52709;DHT22;38606;52.986;6.980;2023-01-31T01:39:45;3.20;99.90
52709;DHT22;38606;52.986;6.980;2023-01-31T01:42:24;4.40;99.90
52709;DHT22;38606;52.986;6.980;2023-01-31T01:44:53;3.20;99.90
52709;DHT22;38606;52.986;6.980;2023-01-31T01:47:39;3.80;99.90
52709;DHT22;38606;52.986;6.980;2023-01-31T01:50:29;3.80;99.90
52709;DHT22;38606;52.986;6.980;2023-01-31T01:53:02;3.10;99.90
52709;DHT22;38606;52.986;6.980;2023-01-31T01:55:34;3.10;99.90
52709;DHT22;38606;52.986;6.980;2023-01-31T01:58:15;3.00;99.90
52709;DHT22;38606;52.986;6.980;2023-01-31T02:00:43;3.00;99.90
52709;DHT22;38606;52.986;6.980;2023-01-31T02:03:09;3.00;99.90
52709;DHT22;38606;52.986;6.980;2023-01-31T02:05:45;2.90;99.90
52709;DHT22;38606;52.986;6.980;2023-01-31T02:08:14;3.20;99.90
52709;DHT22;38606;52.986;6.980;2023-01-31T02:10:57;3.10;99.90
52709;DHT22;38606;52.986;6.980;2023-01-31T02:13:24;3.10;99.90
52709;DHT22;38606;52.986;6.980;2023-01-31T02:15:50;3.30;99.90
52709;DHT22;38606;52.986;6.980;2023-01-31T02:18:16;3.00;99.90
52709;DHT22;38606;52.986;6.980;2023-01-31T02:24:12;3.00;99.90
52709;DHT22;38606;52.986;6.980;2023-01-31T02:27:12;3.20;99.90
52709;DHT22;38606;52.986;6.980;2023-01-31T02:30:36;3.00;99.90
52709;DHT22;38606;52.986;6.980;2023-01-31T02:36:38;3.10;99.90
52709;DHT22;38606;52.986;6.980;2023-01-31T02:39:17;3.10;99.90
52709;DHT22;38606;52.986;6.980;2023-01-31T02:42:06;3.40;99.90
52709;DHT22;38606;52.986;6.980;2023-01-31T02:44:54;3.10;99.90
52709;DHT22;38606;52.986;6.980;2023-01-31T02:47:58;2.90;99.90
52709;DHT22;38606;52.986;6.980;2023-01-31T02:52:57;4.50;99.90
52709;DHT22;38606;52.986;6.980;2023-01-31T02:58:32;3.10;99.90
52709;DHT22;38606;52.986;6.980;2023-01-31T03:01:02;5.30;99.90
52709;DHT22;38606;52.986;6.980;2023-01-31T03:03:34;3.90;99.90
52709;DHT22;38606;52.986;6.980;2023-01-31T03:08:52;4.00;99.90
52709;DHT22;38606;52.986;6.980;2023-01-31T03:11:21;4.00;99.90
52709;DHT22;38606;52.986;6.980;2023-01-31T03:14:04;3.30;99.90
52709;DHT22;38606;52.986;6.980;2023-01-31T03:16:39;4.30;99.90
52709;DHT22;38606;52.986;6.980;2023-01-31T03:19:28;4.40;99.90
52709;DHT22;38606;52.986;6.980;2023-01-31T03:22:27;3.50;99.90
52709;DHT22;38606;52.986;6.980;2023-01-31T03:24:51;3.80;99.90
52709;DHT22;38606;52.986;6.980;2023-01-31T03:27:19;3.90;99.90
52709;DHT22;38606;52.986;6.980;2023-01-31T03:29:46;4.40;99.90
52709;DHT22;38606;52.986;6.980;2023-01-31T03:32:24;3.40;99.90
52709;DHT22;38606;52.986;6.980;2023-01-31T03:34:52;4.50;99.90
52709;DHT22;38606;52.986;6.980;2023-01-31T03:37:36;4.40;99.90
52709;DHT22;38606;52.986;6.980;2023-01-31T03:40:30;3.30;99.90
52709;DHT22;38606;52.986;6.980;2023-01-31T03:43:10;3.50;99.90
52709;DHT22;38606;52.986;6.980;2023-01-31T03:45:45;3.60;99.90
52709;DHT22;38606;52.986;6.980;2023-01-31T03:48:15;4.50;99.90
52709;DHT22;38606;52.986;6.980;2023-01-31T03:50:55;4.80;99.90
52709;DHT22;38606;52.986;6.980;2023-01-31T03:53:45;3.70;99.90
52709;DHT22;38606;52.986;6.980;2023-01-31T03:56:16;3.90;99.90
52709;DHT22;38606;52.986;6.980;2023-01-31T03:58:52;3.60;99.90
52709;DHT22;38606;52.986;6.980;2023-01-31T04:01:22;4.80;99.90
52709;DHT22;38606;52.986;6.980;2023-01-31T04:06:18;3.80;99.90
52709;DHT22;38606;52.986;6.980;2023-01-31T04:08:44;5.10;99.90
52709;DHT22;38606;52.986;6.980;2023-01-31T04:11:12;3.70;99.90
52709;DHT22;38606;52.986;6.980;2023-01-31T04:13:39;3.90;99.90
52709;DHT22;38606;52.986;6.980;2023-01-31T04:16:06;5.10;99.90
52709;DHT22;38606;52.986;6.980;2023-01-31T04:18:32;4.00;99.90
52709;DHT22;38606;52.986;6.980;2023-01-31T04:20:58;4.40;99.90
52709;DHT22;38606;52.986;6.980;2023-01-31T04:23:23;3.70;99.90
52709;DHT22;38606;52.986;6.980;2023-01-31T04:25:52;3.80;99.90
52709;DHT22;38606;52.986;6.980;2023-01-31T04:28:19;3.90;99.90
52709;DHT22;38606;52.986;6.980;2023-01-31T04:30:45;4.80;99.90
52709;DHT22;38606;52.986;6.980;2023-01-31T04:33:11;4.10;99.90
52709;DHT22;38606;52.986;6.980;2023-01-31T04:35:40;5.20;99.90
52709;DHT22;38606;52.986;6.980;2023-01-31T04:38:05;4.80;99.90
52709;DHT22;38606;52.986;6.980;2023-01-31T04:40:31;5.40;99.90
52709;DHT22;38606;52.986;6.980;2023-01-31T04:42:57;5.40;99.90
52709;DHT22;38606;52.986;6.980;2023-01-31T04:45:22;4.10;99.90
52709;DHT22;38606;52.986;6.980;2023-01-31T04:47:48;4.00;99.90
52709;DHT22;38606;52.986;6.980;2023-01-31T04:50:14;4.30;99.90
52709;DHT22;38606;52.986;6.980;2023-01-31T04:52:40;4.10;99.90
52709;DHT22;38606;52.986;6.980;2023-01-31T04:55:06;4.10;99.90
52709;DHT22;38606;52.986;6.980;2023-01-31T04:57:31;4.20;99.90
52709;DHT22;38606;52.986;6.980;2023-01-31T04:59:57;4.20;99.90
52709;DHT22;38606;52.986;6.980;2023-01-31T05:02:23;4.20;99.90
52709;DHT22;38606;52.986;6.980;2023-01-31T05:04:48;4.70;99.90
52709;DHT22;38606;52.986;6.980;2023-01-31T05:07:14;5.60;99.90
52709;DHT22;38606;52.986;6.980;2023-01-31T05:09:40;4.20;99.90
52709;DHT22;38606;52.986;6.980;2023-01-31T05:12:07;4.40;99.90
52709;DHT22;38606;52.986;6.980;2023-01-31T05:14:33;3.20;99.90
52709;DHT22;38606;52.986;6.980;2023-01-31T05:16:58;5.50;99.90
52709;DHT22;38606;52.986;6.980;2023-01-31T05:19:24;4.30;99.90
52709;DHT22;38606;52.986;6.980;2023-01-31T05:21:50;4.20;99.90
52709;DHT22;38606;52.986;6.980;2023-01-31T05:24:32;4.40;99.90
52709;DHT22;38606;52.986;6.980;2023-01-31T05:26:59;4.60;99.90
52709;DHT22;38606;52.986;6.980;2023-01-31T05:29:30;4.40;99.90
52709;DHT22;38606;52.986;6.980;2023-01-31T05:31:58;4.60;99.90
52709;DHT22;38606;52.986;6.980;2023-01-31T05:34:24;4.50;99.90
52709;DHT22;38606;52.986;6.980;2023-01-31T05:36:51;4.40;99.90
52709;DHT22;38606;52.986;6.980;2023-01-31T05:39:17;5.60;99.90
52709;DHT22;38606;52.986;6.980;2023-01-31T05:41:43;5.00;99.90
52709;DHT22;38606;52.986;6.980;2023-01-31T05:44:08;4.50;99.90
52709;DHT22;38606;52.986;6.980;2023-01-31T05:46:35;4.90;99.90
52709;DHT22;38606;52.986;6.980;2023-01-31T05:49:01;4.50;99.90
52709;DHT22;38606;52.986;6.980;2023-01-31T05:51:26;4.60;99.90
52709;DHT22;38606;52.986;6.980;2023-01-31T05:53:52;6.10;99.90
52709;DHT22;38606;52.986;6.980;2023-01-31T05:56:19;4.70;99.90
52709;DHT22;38606;52.986;6.980;2023-01-31T05:58:46;4.70;99.90
52709;DHT22;38606;52.986;6.980;2023-01-31T06:01:19;5.10;99.90
52709;DHT22;38606;52.986;6.980;2023-01-31T06:03:45;4.60;99.90
52709;DHT22;38606;52.986;6.980;2023-01-31T06:06:12;5.20;99.90
52709;DHT22;38606;52.986;6.980;2023-01-31T06:08:38;5.40;99.90
52709;DHT22;38606;52.986;6.980;2023-01-31T06:11:04;4.80;99.90
52709;DHT22;38606;52.986;6.980;2023-01-31T06:13:31;6.10;99.90
52709;DHT22;38606;52.986;6.980;2023-01-31T06:15:56;6.20;99.90
52709;DHT22;38606;52.986;6.980;2023-01-31T06:18:22;4.30;99.90
52709;DHT22;38606;52.986;6.980;2023-01-31T06:20:48;6.50;99.90
52709;DHT22;38606;52.986;6.980;2023-01-31T06:23:14;4.90;99.90
52709;DHT22;38606;52.986;6.980;2023-01-31T06:25:39;5.50;99.90
52709;DHT22;38606;52.986;6.980;2023-01-31T06:28:05;5.00;99.90
52709;DHT22;38606;52.986;6.980;2023-01-31T06:30:31;5.30;99.90
52709;DHT22;38606;52.986;6.980;2023-01-31T06:33:01;5.20;99.90
52709;DHT22;38606;52.986;6.980;2023-01-31T06:35:27;5.20;99.90
52709;DHT22;38606;52.986;6.980;2023-01-31T06:37:54;5.30;99.90
52709;DHT22;38606;52.986;6.980;2023-01-31T06:40:20;5.60;99.90
52709;DHT22;38606;52.986;6.980;2023-01-31T06:42:46;5.20;99.90
52709;DHT22;38606;52.986;6.980;2023-01-31T06:45:12;5.30;99.90
52709;DHT22;38606;52.986;6.980;2023-01-31T06:47:38;5.20;99.90
52709;DHT22;38606;52.986;6.980;2023-01-31T06:50:04;5.30;99.90
52709;DHT22;38606;52.986;6.980;2023-01-31T06:52:29;5.20;99.90
52709;DHT22;38606;52.986;6.980;2023-01-31T06:54:55;5.80;99.90
52709;DHT22;38606;52.986;6.980;2023-01-31T06:57:21;6.10;99.90
52709;DHT22;38606;52.986;6.980;2023-01-31T06:59:47;6.70;99.90
52709;DHT22;38606;52.986;6.980;2023-01-31T07:02:13;5.40;99.90
52709;DHT22;38606;52.986;6.980;2023-01-31T07:04:38;6.10;99.90
52709;DHT22;38606;52.986;6.980;2023-01-31T07:07:04;6.60;99.90
52709;DHT22;38606;52.986;6.980;2023-01-31T07:09:30;6.00;99.90
52709;DHT22;38606;52.986;6.980;2023-01-31T07:11:55;5.40;99.90
52709;DHT22;38606;52.986;6.980;2023-01-31T07:14:21;5.40;99.90
52709;DHT22;38606;52.986;6.980;2023-01-31T07:16:47;5.60;99.90
52709;DHT22;38606;52.986;6.980;2023-01-31T07:19:12;5.30;99.90
52709;DHT22;38606;52.986;6.980;2023-01-31T07:21:38;5.30;99.90
52709;DHT22;38606;52.986;6.980;2023-01-31T07:24:04;5.40;99.90
52709;DHT22;38606;52.986;6.980;2023-01-31T07:26:30;5.60;99.90
52709;DHT22;38606;52.986;6.980;2023-01-31T07:28:55;6.30;99.90
52709;DHT22;38606;52.986;6.980;2023-01-31T07:31:21;5.30;99.90
52709;DHT22;38606;52.986;6.980;2023-01-31T07:33:47;5.90;99.90
52709;DHT22;38606;52.986;6.980;2023-01-31T07:36:14;5.50;99.90
52709;DHT22;38606;52.986;6.980;2023-01-31T07:38:41;5.90;99.90
52709;DHT22;38606;52.986;6.980;2023-01-31T07:41:08;6.30;99.90
52709;DHT22;38606;52.986;6.980;2023-01-31T07:43:35;6.40;99.90
52709;DHT22;38606;52.986;6.980;2023-01-31T07:46:01;5.80;99.90
52709;DHT22;38606;52.986;6.980;2023-01-31T07:48:27;6.00;99.90
52709;DHT22;38606;52.986;6.980;2023-01-31T07:50:58;6.20;99.90
52709;DHT22;38606;52.986;6.980;2023-01-31T07:53:30;5.60;99.90
52709;DHT22;38606;52.986;6.980;2023-01-31T07:56:14;5.80;99.90
52709;DHT22;38606;52.986;6.980;2023-01-31T07:58:41;5.60;99.90
52709;DHT22;38606;52.986;6.980;2023-01-31T08:01:13;5.60;99.90
52709;DHT22;38606;52.986;6.980;2023-01-31T08:03:57;5.40;99.90
52709;DHT22;38606;52.986;6.980;2023-01-31T08:06:23;5.60;99.90
52709;DHT22;38606;52.986;6.980;2023-01-31T08:08:49;7.00;99.90
52709;DHT22;38606;52.986;6.980;2023-01-31T08:11:14;5.70;99.90
52709;DHT22;38606;52.986;6.980;2023-01-31T08:13:40;7.80;99.90
52709;DHT22;38606;52.986;6.980;2023-01-31T08:16:07;6.20;99.90
52709;DHT22;38606;52.986;6.980;2023-01-31T08:18:34;5.80;99.90
52709;DHT22;38606;52.986;6.980;2023-01-31T08:21:00;5.60;99.90
52709;DHT22;38606;52.986;6.980;2023-01-31T08:23:26;6.80;99.90
52709;DHT22;38606;52.986;6.980;2023-01-31T08:25:59;5.90;99.90
52709;DHT22;38606;52.986;6.980;2023-01-31T08:28:25;5.90;99.90
52709;DHT22;38606;52.986;6.980;2023-01-31T08:30:50;5.70;99.90
52709;DHT22;38606;52.986;6.980;2023-01-31T08:33:16;6.00;99.90
52709;DHT22;38606;52.986;6.980;2023-01-31T08:35:42;7.00;99.90
52709;DHT22;38606;52.986;6.980;2023-01-31T08:38:08;5.90;99.90
52709;DHT22;38606;52.986;6.980;2023-01-31T08:40:33;5.90;99.90
52709;DHT22;38606;52.986;6.980;2023-01-31T08:42:59;7.00;99.90
52709;DHT22;38606;52.986;6.980;2023-01-31T08:45:26;7.30;99.90
52709;DHT22;38606;52.986;6.980;2023-01-31T08:47:57;5.90;99.90
52709;DHT22;38606;52.986;6.980;2023-01-31T08:50:24;6.00;99.90
52709;DHT22;38606;52.986;6.980;2023-01-31T08:52:55;6.10;99.90
52709;DHT22;38606;52.986;6.980;2023-01-31T08:55:21;6.20;99.90
52709;DHT22;38606;52.986;6.980;2023-01-31T08:57:48;7.30;99.90
52709;DHT22;38606;52.986;6.980;2023-01-31T09:00:15;6.30;99.90
52709;DHT22;38606;52.986;6.980;2023-01-31T09:02:41;6.20;99.90
52709;DHT22;38606;52.986;6.980;2023-01-31T09:05:07;6.00;99.90
52709;DHT22;38606;52.986;6.980;2023-01-31T09:07:36;6.20;99.90
52709;DHT22;38606;52.986;6.980;2023-01-31T09:10:02;7.30;99.90
52709;DHT22;38606;52.986;6.980;2023-01-31T09:12:27;6.20;99.90
52709;DHT22;38606;52.986;6.980;2023-01-31T09:14:53;6.30;99.90
52709;DHT22;38606;52.986;6.980;2023-01-31T09:17:19;6.20;99.90
52709;DHT22;38606;52.986;6.980;2023-01-31T09:19:45;6.40;99.90
52709;DHT22;38606;52.986;6.980;2023-01-31T09:22:12;6.40;99.90
52709;DHT22;38606;52.986;6.980;2023-01-31T09:24:38;6.40;99.90
52709;DHT22;38606;52.986;6.980;2023-01-31T09:27:04;6.40;99.90
52709;DHT22;38606;52.986;6.980;2023-01-31T09:29:30;6.30;99.90
52709;DHT22;38606;52.986;6.980;2023-01-31T09:31:56;6.50;99.90
52709;DHT22;38606;52.986;6.980;2023-01-31T09:34:22;6.60;99.90
52709;DHT22;38606;52.986;6.980;2023-01-31T09:36:48;6.50;99.90
52709;DHT22;38606;52.986;6.980;2023-01-31T09:39:14;7.70;99.90
52709;DHT22;38606;52.986;6.980;2023-01-31T09:41:54;7.60;99.90
52709;DHT22;38606;52.986;6.980;2023-01-31T09:44:26;6.50;99.90
52709;DHT22;38606;52.986;6.980;2023-01-31T09:47:21;6.80;99.90
52709;DHT22;38606;52.986;6.980;2023-01-31T09:52:37;6.60;99.90
52709;DHT22;38606;52.986;6.980;2023-01-31T09:55:04;6.50;99.90
52709;DHT22;38606;52.986;6.980;2023-01-31T09:58:08;5.10;99.90
52709;DHT22;38606;52.986;6.980;2023-01-31T10:00:34;6.80;99.90
52709;DHT22;38606;52.986;6.980;2023-01-31T10:03:10;7.00;99.90
52709;DHT22;38606;52.986;6.980;2023-01-31T10:05:50;6.70;99.90
52709;DHT22;38606;52.986;6.980;2023-01-31T10:10:53;6.70;99.90
52709;DHT22;38606;52.986;6.980;2023-01-31T10:13:46;7.60;99.90
52709;DHT22;38606;52.986;6.980;2023-01-31T10:16:34;6.80;99.90
52709;DHT22;38606;52.986;6.980;2023-01-31T10:19:13;6.90;99.90
52709;DHT22;38606;52.986;6.980;2023-01-31T10:21:44;6.80;99.90
52709;DHT22;38606;52.986;6.980;2023-01-31T10:24:20;6.80;99.90
52709;DHT22;38606;52.986;6.980;2023-01-31T10:26:50;7.10;99.90
52709;DHT22;38606;52.986;6.980;2023-01-31T10:29:26;6.90;99.90
52709;DHT22;38606;52.986;6.980;2023-01-31T10:32:01;7.00;99.90
52709;DHT22;38606;52.986;6.980;2023-01-31T10:34:41;7.60;99.90
52709;DHT22;38606;52.986;6.980;2023-01-31T10:37:16;6.80;99.90
52709;DHT22;38606;52.986;6.980;2023-01-31T10:39:49;7.30;99.90
52709;DHT22;38606;52.986;6.980;2023-01-31T10:42:21;7.20;99.90
52709;DHT22;38606;52.986;6.980;2023-01-31T10:45:02;7.00;99.90
52709;DHT22;38606;52.986;6.980;2023-01-31T10:55:46;7.00;99.90
52709;DHT22;38606;52.986;6.980;2023-01-31T10:58:18;7.10;99.90
52709;DHT22;38606;52.986;6.980;2023-01-31T11:00:46;6.90;99.90
52709;DHT22;38606;52.986;6.980;2023-01-31T11:03:13;7.00;99.90
52709;DHT22;38606;52.986;6.980;2023-01-31T11:05:55;7.30;99.90
52709;DHT22;38606;52.986;6.980;2023-01-31T11:10:57;6.80;99.90
52709;DHT22;38606;52.986;6.980;2023-01-31T11:13:28;6.90;99.90
52709;DHT22;38606;52.986;6.980;2023-01-31T11:15:54;7.10;99.90
52709;DHT22;38606;52.986;6.980;2023-01-31T11:18:35;7.00;99.90
52709;DHT22;38606;52.986;6.980;2023-01-31T11:21:03;8.10;99.90
52709;DHT22;38606;52.986;6.980;2023-01-31T11:23:31;7.00;99.90
52709;DHT22;38606;52.986;6.980;2023-01-31T11:25:58;7.00;99.90
52709;DHT22;38606;52.986;6.980;2023-01-31T11:28:39;7.20;99.90
52709;DHT22;38606;52.986;6.980;2023-01-31T11:31:20;7.40;99.90
52709;DHT22;38606;52.986;6.980;2023-01-31T11:33:59;7.00;99.90
52709;DHT22;38606;52.986;6.980;2023-01-31T11:36:25;7.00;99.90
52709;DHT22;38606;52.986;6.980;2023-01-31T11:38:55;8.00;99.90
52709;DHT22;38606;52.986;6.980;2023-01-31T11:41:28;7.60;99.90
52709;DHT22;38606;52.986;6.980;2023-01-31T11:44:14;7.30;99.90
52709;DHT22;38606;52.986;6.980;2023-01-31T11:46:52;7.10;99.90
52709;DHT22;38606;52.986;6.980;2023-01-31T11:49:28;7.10;99.90
52709;DHT22;38606;52.986;6.980;2023-01-31T11:51:56;6.90;99.90
52709;DHT22;38606;52.986;6.980;2023-01-31T11:54:27;7.50;99.90
52709;DHT22;38606;52.986;6.980;2023-01-31T11:56:53;7.00;99.90
52709;DHT22;38606;52.986;6.980;2023-01-31T11:59:24;7.20;99.90
52709;DHT22;38606;52.986;6.980;2023-01-31T12:01:53;7.10;99.90
52709;DHT22;38606;52.986;6.980;2023-01-31T12:04:25;6.90;99.90
52709;DHT22;38606;52.986;6.980;2023-01-31T12:07:18;7.80;99.90
52709;DHT22;38606;52.986;6.980;2023-01-31T12:09:45;7.00;99.90
52709;DHT22;38606;52.986;6.980;2023-01-31T12:12:27;8.10;99.90
52709;DHT22;38606;52.986;6.980;2023-01-31T12:15:05;7.10;99.90
52709;DHT22;38606;52.986;6.980;2023-01-31T12:17:46;7.30;99.90
52709;DHT22;38606;52.986;6.980;2023-01-31T12:20:36;7.10;99.90
52709;DHT22;38606;52.986;6.980;2023-01-31T12:23:22;7.10;99.90
52709;DHT22;38606;52.986;6.980;2023-01-31T12:26:12;7.10;99.90
52709;DHT22;38606;52.986;6.980;2023-01-31T12:31:11;7.20;99.90
52709;DHT22;38606;52.986;6.980;2023-01-31T12:43:03;7.50;99.90
52709;DHT22;38606;52.986;6.980;2023-01-31T12:53:46;9.00;99.90
52709;DHT22;38606;52.986;6.980;2023-01-31T12:59:38;7.80;99.90
52709;DHT22;38606;52.986;6.980;2023-01-31T13:13:36;7.90;99.90
52709;DHT22;38606;52.986;6.980;2023-01-31T13:16:19;8.10;99.90
52709;DHT22;38606;52.986;6.980;2023-01-31T13:18:48;8.10;99.90
52709;DHT22;38606;52.986;6.980;2023-01-31T13:21:22;8.10;99.90
52709;DHT22;38606;52.986;6.980;2023-01-31T13:23:56;9.00;99.90
52709;DHT22;38606;52.986;6.980;2023-01-31T13:26:35;8.00;99.90
52709;DHT22;38606;52.986;6.980;2023-01-31T13:29:06;8.00;99.90
52709;DHT22;38606;52.986;6.980;2023-01-31T13:34:51;8.10;99.90
52709;DHT22;38606;52.986;6.980;2023-01-31T13:37:18;8.00;99.90
52709;DHT22;38606;52.986;6.980;2023-01-31T13:42:23;8.20;99.90
52709;DHT22;38606;52.986;6.980;2023-01-31T13:44:49;8.30;99.90
52709;DHT22;38606;52.986;6.980;2023-01-31T13:47:27;9.40;99.90
52709;DHT22;38606;52.986;6.980;2023-01-31T13:49:56;8.30;99.90
52709;DHT22;38606;52.986;6.980;2023-01-31T13:52:45;8.50;99.90
52709;DHT22;38606;52.986;6.980;2023-01-31T13:55:35;8.30;99.90
52709;DHT22;38606;52.986;6.980;2023-01-31T14:00:42;8.40;99.90
52709;DHT22;38606;52.986;6.980;2023-01-31T14:03:14;8.20;99.90
52709;DHT22;38606;52.986;6.980;2023-01-31T14:08:28;8.20;99.90
52709;DHT22;38606;52.986;6.980;2023-01-31T14:10:55;8.20;99.90
52709;DHT22;38606;52.986;6.980;2023-01-31T14:16:00;8.10;99.90
52709;DHT22;38606;52.986;6.980;2023-01-31T14:18:45;8.70;99.90
52709;DHT22;38606;52.986;6.980;2023-01-31T14:23:56;8.00;99.90
52709;DHT22;38606;52.986;6.980;2023-01-31T14:29:17;8.20;99.90
52709;DHT22;38606;52.986;6.980;2023-01-31T14:31:45;8.20;99.90
52709;DHT22;38606;52.986;6.980;2023-01-31T14:34:22;8.20;99.90
52709;DHT22;38606;52.986;6.980;2023-01-31T14:42:25;8.10;99.90
52709;DHT22;38606;52.986;6.980;2023-01-31T14:56:03;8.20;99.90
52709;DHT22;38606;52.986;6.980;2023-01-31T14:58:30;8.10;99.90
52709;DHT22;38606;52.986;6.980;2023-01-31T15:01:02;8.10;99.90
52709;DHT22;38606;52.986;6.980;2023-01-31T15:03:34;9.10;99.90
52709;DHT22;38606;52.986;6.980;2023-01-31T15:06:26;8.30;99.90
52709;DHT22;38606;52.986;6.980;2023-01-31T15:11:50;8.10;99.90
52709;DHT22;38606;52.986;6.980;2023-01-31T15:14:37;8.10;99.90
52709;DHT22;38606;52.986;6.980;2023-01-31T15:17:09;8.20;99.90
52709;DHT22;38606;52.986;6.980;2023-01-31T15:20:44;8.20;99.90
52709;DHT22;38606;52.986;6.980;2023-01-31T15:22:54;8.00;99.90
52709;DHT22;38606;52.986;6.980;2023-01-31T15:25:33;8.40;99.90
52709;DHT22;38606;52.986;6.980;2023-01-31T15:28:00;8.10;99.90
52709;DHT22;38606;52.986;6.980;2023-01-31T15:30:29;9.40;99.90
52709;DHT22;38606;52.986;6.980;2023-01-31T15:33:18;8.10;99.90
52709;DHT22;38606;52.986;6.980;2023-01-31T15:36:06;8.30;99.90
52709;DHT22;38606;52.986;6.980;2023-01-31T15:38:40;8.10;99.90
52709;DHT22;38606;52.986;6.980;2023-01-31T15:43:36;8.00;99.90
52709;DHT22;38606;52.986;6.980;2023-01-31T15:46:23;8.00;99.90
52709;DHT22;38606;52.986;6.980;2023-01-31T15:48:50;8.00;99.90
52709;DHT22;38606;52.986;6.980;2023-01-31T15:51:16;8.00;99.90
52709;DHT22;38606;52.986;6.980;2023-01-31T15:53:43;7.90;99.90
52709;DHT22;38606;52.986;6.980;2023-01-31T15:56:21;8.00;99.90
52709;DHT22;38606;52.986;6.980;2023-01-31T15:58:51;7.60;99.90
52709;DHT22;38606;52.986;6.980;2023-01-31T16:01:17;7.90;99.90
52709;DHT22;38606;52.986;6.980;2023-01-31T16:03:52;7.70;99.90
52709;DHT22;38606;52.986;6.980;2023-01-31T16:08:53;8.10;99.90
52709;DHT22;38606;52.986;6.980;2023-01-31T16:11:19;8.40;99.90
52709;DHT22;38606;52.986;6.980;2023-01-31T16:13:46;7.90;99.90
52709;DHT22;38606;52.986;6.980;2023-01-31T16:16:12;8.00;99.90
52709;DHT22;38606;52.986;6.980;2023-01-31T16:18:42;7.40;99.90
52709;DHT22;38606;52.986;6.980;2023-01-31T16:26:31;7.50;99.90
52709;DHT22;38606;52.986;6.980;2023-01-31T16:29:00;7.40;99.90
52709;DHT22;38606;52.986;6.980;2023-01-31T16:31:33;7.50;99.90
52709;DHT22;38606;52.986;6.980;2023-01-31T16:34:02;7.50;99.90
52709;DHT22;38606;52.986;6.980;2023-01-31T16:36:33;7.40;99.90
52709;DHT22;38606;52.986;6.980;2023-01-31T16:39:46;7.30;99.90
52709;DHT22;38606;52.986;6.980;2023-01-31T16:44:46;7.00;99.90
52709;DHT22;38606;52.986;6.980;2023-01-31T16:50:33;7.10;99.90
52709;DHT22;38606;52.986;6.980;2023-01-31T16:53:26;6.90;99.90
52709;DHT22;38606;52.986;6.980;2023-01-31T16:58:55;7.00;99.90
52709;DHT22;38606;52.986;6.980;2023-01-31T17:01:32;6.90;99.90
52709;DHT22;38606;52.986;6.980;2023-01-31T17:04:12;6.80;99.90
52709;DHT22;38606;52.986;6.980;2023-01-31T17:06:39;6.80;99.90
52709;DHT22;38606;52.986;6.980;2023-01-31T17:09:08;6.70;99.90
52709;DHT22;38606;52.986;6.980;2023-01-31T17:11:34;7.30;99.90
52709;DHT22;38606;52.986;6.980;2023-01-31T17:14:00;6.80;99.90
52709;DHT22;38606;52.986;6.980;2023-01-31T17:16:26;6.50;99.90
52709;DHT22;38606;52.986;6.980;2023-01-31T17:18:54;6.50;99.90
52709;DHT22;38606;52.986;6.980;2023-01-31T17:21:21;7.30;99.90
52709;DHT22;38606;52.986;6.980;2023-01-31T17:23:47;7.00;99.90
52709;DHT22;38606;52.986;6.980;2023-01-31T17:26:18;6.40;99.90
52709;DHT22;38606;52.986;6.980;2023-01-31T17:28:45;6.40;99.90
52709;DHT22;38606;52.986;6.980;2023-01-31T17:31:20;6.30;99.90
52709;DHT22;38606;52.986;6.980;2023-01-31T17:33:47;6.30;99.90
52709;DHT22;38606;52.986;6.980;2023-01-31T17:36:13;6.40;99.90
52709;DHT22;38606;52.986;6.980;2023-01-31T17:38:39;6.80;99.90
52709;DHT22;38606;52.986;6.980;2023-01-31T17:41:05;6.10;99.90
52709;DHT22;38606;52.986;6.980;2023-01-31T17:43:31;6.30;99.90
52709;DHT22;38606;52.986;6.980;2023-01-31T17:45:58;6.40;99.90
52709;DHT22;38606;52.986;6.980;2023-01-31T17:48:23;6.30;99.90
52709;DHT22;38606;52.986;6.980;2023-01-31T17:50:49;6.10;99.90
52709;DHT22;38606;52.986;6.980;2023-01-31T17:53:15;6.20;99.90
52709;DHT22;38606;52.986;6.980;2023-01-31T17:55:41;7.50;99.90
52709;DHT22;38606;52.986;6.980;2023-01-31T17:58:11;6.20;99.90
52709;DHT22;38606;52.986;6.980;2023-01-31T18:00:38;6.60;99.90
52709;DHT22;38606;52.986;6.980;2023-01-31T18:03:03;6.00;99.90
52709;DHT22;38606;52.986;6.980;2023-01-31T18:05:30;6.10;99.90
52709;DHT22;38606;52.986;6.980;2023-01-31T18:07:58;7.20;99.90
52709;DHT22;38606;52.986;6.980;2023-01-31T18:10:24;6.20;99.90
52709;DHT22;38606;52.986;6.980;2023-01-31T18:12:49;6.90;99.90
52709;DHT22;38606;52.986;6.980;2023-01-31T18:15:15;6.20;99.90